sensor_id;sensor_type;location;lat;lon;timestamp;pressure;altitude;pressure_sealevel;temperature;humidity
50166;BME280;36071;48.140;11.516;2023-11-19T00:00:16;95580.0;;;4.7;100.0
50166;BME280;36071;48.140;11.516;2023-11-19T00:05:16;95590.0;;;4.7;100.0
50166;BME280;36071;48.140;11.516;2023-11-19T00:10:16;95580.0;;;4.7;100.0
50166;BME280;36071;48.140;11.516;2023-11-19T00:15:17;95560.0;;;4.6;100.0
50166;BME280;36071;48.140;11.516;2023-11-19T00:20:17;95560.0;;;4.7;100.0
50166;BME280;36071;48.140;11.516;2023-11-19T00:25:16;95540.0;;;4.7;100.0
50166;BME280;36071;48.140;11.516;2023-11-19T00:35:16;95530.0;;;4.8;100.0
50166;BME280;36071;48.140;11.516;2023-11-19T00:40:16;95530.0;;;4.9;100.0
50166;BME280;36071;48.140;11.516;2023-11-19T00:45:16;95530.0;;;5.0;100.0
50166;BME280;36071;48.140;11.516;2023-11-19T00:50:16;95520.0;;;5.1;100.0
50166;BME280;36071;48.140;11.516;2023-11-19T01:00:16;95520.0;;;5.2;100.0
50166;BME280;36071;48.140;11.516;2023-11-19T01:05:16;95510.0;;;5.2;100.0
50166;BME280;36071;48.140;11.516;2023-11-19T01:10:16;95510.0;;;5.3;100.0
50166;BME280;36071;48.140;11.516;2023-11-19T01:15:16;95500.0;;;5.3;100.0
50166;BME280;36071;48.140;11.516;2023-11-19T01:20:16;95500.0;;;5.4;100.0
50166;BME280;36071;48.140;11.516;2023-11-19T01:25:16;95490.0;;;5.4;100.0
50166;BME280;36071;48.140;11.516;2023-11-19T01:30:16;95490.0;;;5.5;100.0
50166;BME280;36071;48.140;11.516;2023-11-19T01:40:19;95480.0;;;5.6;100.0
50166;BME280;36071;48.140;11.516;2023-11-19T01:45:21;95470.0;;;5.6;100.0
50166;BME280;36071;48.140;11.516;2023-11-19T01:50:16;95460.0;;;5.7;100.0
50166;BME280;36071;48.140;11.516;2023-11-19T02:00:16;95450.0;;;5.8;100.0
50166;BME280;36071;48.140;11.516;2023-11-19T02:05:16;95440.0;;;5.8;100.0
50166;BME280;36071;48.140;11.516;2023-11-19T02:15:16;95430.0;;;5.9;100.0
50166;BME280;36071;48.140;11.516;2023-11-19T02:20:16;95410.0;;;5.9;100.0
50166;BME280;36071;48.140;11.516;2023-11-19T02:25:18;95410.0;;;6.0;100.0
50166;BME280;36071;48.140;11.516;2023-11-19T02:30:16;95400.0;;;6.2;100.0
50166;BME280;36071;48.140;11.516;2023-11-19T02:35:16;95380.0;;;6.3;100.0
50166;BME280;36071;48.140;11.516;2023-11-19T02:40:16;95380.0;;;6.5;100.0
50166;BME280;36071;48.140;11.516;2023-11-19T02:45:16;95380.0;;;6.6;100.0
50166;BME280;36071;48.140;11.516;2023-11-19T02:50:16;95370.0;;;6.7;100.0
50166;BME280;36071;48.140;11.516;2023-11-19T02:55:16;95350.0;;;6.8;100.0
50166;BME280;36071;48.140;11.516;2023-11-19T03:00:17;95350.0;;;6.9;100.0
50166;BME280;36071;48.140;11.516;2023-11-19T03:05:16;95340.0;;;7.0;100.0
50166;BME280;36071;48.140;11.516;2023-11-19T03:10:16;95340.0;;;7.1;100.0
50166;BME280;36071;48.140;11.516;2023-11-19T03:15:16;95330.0;;;7.1;100.0
50166;BME280;36071;48.140;11.516;2023-11-19T03:20:16;95340.0;;;7.2;100.0
50166;BME280;36071;48.140;11.516;2023-11-19T03:25:16;95340.0;;;7.3;100.0
50166;BME280;36071;48.140;11.516;2023-11-19T03:35:16;95330.0;;;7.4;100.0
50166;BME280;36071;48.140;11.516;2023-11-19T03:45:16;95330.0;;;7.5;100.0
50166;BME280;36071;48.140;11.516;2023-11-19T03:50:16;95330.0;;;7.6;100.0
50166;BME280;36071;48.140;11.516;2023-11-19T03:55:16;95340.0;;;7.8;100.0
50166;BME280;36071;48.140;11.516;2023-11-19T04:05:16;95330.0;;;7.9;100.0
50166;BME280;36071;48.140;11.516;2023-11-19T04:10:16;95330.0;;;8.0;100.0
50166;BME280;36071;48.140;11.516;2023-11-19T04:15:16;95340.0;;;8.1;100.0
50166;BME280;36071;48.140;11.516;2023-11-19T04:20:16;95340.0;;;8.2;100.0
50166;BME280;36071;48.140;11.516;2023-11-19T04:35:16;95350.0;;;8.3;100.0
50166;BME280;36071;48.140;11.516;2023-11-19T04:40:16;95350.0;;;8.4;100.0
50166;BME280;36071;48.140;11.516;2023-11-19T04:45:16;95340.0;;;8.4;100.0
50166;BME280;36071;48.140;11.516;2023-11-19T04:55:16;95340.0;;;8.6;100.0
50166;BME280;36071;48.140;11.516;2023-11-19T05:00:16;95350.0;;;8.6;100.0
50166;BME280;36071;48.140;11.516;2023-11-19T05:10:16;95360.0;;;8.7;100.0
50166;BME280;36071;48.140;11.516;2023-11-19T05:15:16;95360.0;;;8.8;100.0
50166;BME280;36071;48.140;11.516;2023-11-19T05:25:16;95370.0;;;8.8;100.0
50166;BME280;36071;48.140;11.516;2023-11-19T05:30:16;95380.0;;;8.9;100.0
50166;BME280;36071;48.140;11.516;2023-11-19T05:40:16;95370.0;;;8.9;100.0
50166;BME280;36071;48.140;11.516;2023-11-19T05:45:16;95380.0;;;8.9;100.0
50166;BME280;36071;48.140;11.516;2023-11-19T06:00:16;95380.0;;;9.0;100.0
50166;BME280;36071;48.140;11.516;2023-11-19T06:05:16;95370.0;;;9.0;100.0
50166;BME280;36071;48.140;11.516;2023-11-19T06:15:16;95380.0;;;9.0;100.0
50166;BME280;36071;48.140;11.516;2023-11-19T06:20:16;95390.0;;;9.0;100.0
50166;BME280;36071;48.140;11.516;2023-11-19T06:25:16;95380.0;;;9.1;100.0
50166;BME280;36071;48.140;11.516;2023-11-19T06:30:16;95370.0;;;9.1;100.0
50166;BME280;36071;48.140;11.516;2023-11-19T06:45:16;95380.0;;;9.2;100.0
50166;BME280;36071;48.140;11.516;2023-11-19T06:55:16;95390.0;;;9.3;100.0
50166;BME280;36071;48.140;11.516;2023-11-19T07:05:16;95380.0;;;9.4;100.0
50166;BME280;36071;48.140;11.516;2023-11-19T07:10:16;95390.0;;;9.4;100.0
50166;BME280;36071;48.140;11.516;2023-11-19T07:45:16;95430.0;;;9.7;100.0
50166;BME280;36071;48.140;11.516;2023-11-19T07:55:16;95440.0;;;9.8;100.0
50166;BME280;36071;48.140;11.516;2023-11-19T08:00:16;95430.0;;;9.8;100.0
50166;BME280;36071;48.140;11.516;2023-11-19T08:05:16;95440.0;;;9.9;100.0
50166;BME280;36071;48.140;11.516;2023-11-19T08:10:16;95450.0;;;9.9;100.0
50166;BME280;36071;48.140;11.516;2023-11-19T08:20:16;95440.0;;;10.0;100.0
50166;BME280;36071;48.140;11.516;2023-11-19T08:25:16;95430.0;;;10.1;100.0
50166;BME280;36071;48.140;11.516;2023-11-19T08:30:16;95440.0;;;10.1;100.0
50166;BME280;36071;48.140;11.516;2023-11-19T08:35:16;95430.0;;;10.2;100.0
50166;BME280;36071;48.140;11.516;2023-11-19T08:40:16;95450.0;;;10.2;100.0
50166;BME280;36071;48.140;11.516;2023-11-19T08:45:16;95440.0;;;10.3;100.0
50166;BME280;36071;48.140;11.516;2023-11-19T08:50:16;95440.0;;;10.4;100.0
50166;BME280;36071;48.140;11.516;2023-11-19T09:05:16;95430.0;;;10.5;100.0
50166;BME280;36071;48.140;11.516;2023-11-19T09:10:16;95450.0;;;10.6;100.0
50166;BME280;36071;48.140;11.516;2023-11-19T09:15:16;95430.0;;;10.6;100.0
50166;BME280;36071;48.140;11.516;2023-11-19T09:20:16;95440.0;;;10.6;100.0
50166;BME280;36071;48.140;11.516;2023-11-19T09:25:16;95450.0;;;10.7;100.0
50166;BME280;36071;48.140;11.516;2023-11-19T09:30:16;95460.0;;;10.7;100.0
50166;BME280;36071;48.140;11.516;2023-11-19T09:35:16;95460.0;;;10.8;100.0
50166;BME280;36071;48.140;11.516;2023-11-19T09:40:16;95480.0;;;10.8;100.0
50166;BME280;36071;48.140;11.516;2023-11-19T09:45:16;95460.0;;;10.8;100.0
50166;BME280;36071;48.140;11.516;2023-11-19T09:55:16;95450.0;;;10.9;100.0
50166;BME280;36071;48.140;11.516;2023-11-19T10:00:16;95450.0;;;11.0;100.0
50166;BME280;36071;48.140;11.516;2023-11-19T10:05:16;95430.0;;;11.2;100.0
50166;BME280;36071;48.140;11.516;2023-11-19T10:10:16;95420.0;;;11.3;100.0
50166;BME280;36071;48.140;11.516;2023-11-19T10:15:19;95420.0;;;11.4;100.0
50166;BME280;36071;48.140;11.516;2023-11-19T10:20:16;95420.0;;;11.5;100.0
50166;BME280;36071;48.140;11.516;2023-11-19T10:25:24;95420.0;;;12.8;100.0
50166;BME280;36071;48.140;11.516;2023-11-19T10:30:19;95410.0;;;13.8;94.0
50166;BME280;36071;48.140;11.516;2023-11-19T10:35:16;95410.0;;;13.6;93.5
50166;BME280;36071;48.140;11.516;2023-11-19T10:40:16;95400.0;;;13.9;92.1
50166;BME280;36071;48.140;11.516;2023-11-19T10:45:21;95400.0;;;15.1;83.3
50166;BME280;36071;48.140;11.516;2023-11-19T10:50:16;95380.0;;;16.6;73.7
50166;BME280;36071;48.140;11.516;2023-11-19T10:55:16;95380.0;;;16.1;74.2
50166;BME280;36071;48.140;11.516;2023-11-19T11:00:16;95380.0;;;14.7;80.3
50166;BME280;36071;48.140;11.516;2023-11-19T11:05:16;95370.0;;;14.8;81.9
50166;BME280;36071;48.140;11.516;2023-11-19T11:10:16;95370.0;;;16.0;73.2
50166;BME280;36071;48.140;11.516;2023-11-19T11:15:16;95370.0;;;16.6;69.2
50166;BME280;36071;48.140;11.516;2023-11-19T11:20:16;95370.0;;;16.0;72.3
50166;BME280;36071;48.140;11.516;2023-11-19T11:25:19;95360.0;;;15.7;73.7
50166;BME280;36071;48.140;11.516;2023-11-19T11:30:20;95360.0;;;15.8;73.1
50166;BME280;36071;48.140;11.516;2023-11-19T11:35:21;95350.0;;;15.6;73.9
50166;BME280;36071;48.140;11.516;2023-11-19T11:40:16;95350.0;;;15.6;73.8
50166;BME280;36071;48.140;11.516;2023-11-19T11:45:16;95340.0;;;16.0;72.0
50166;BME280;36071;48.140;11.516;2023-11-19T11:50:17;95330.0;;;16.2;70.5
50166;BME280;36071;48.140;11.516;2023-11-19T11:55:16;95340.0;;;16.2;69.3
50166;BME280;36071;48.140;11.516;2023-11-19T12:00:21;95350.0;;;16.4;67.8
50166;BME280;36071;48.140;11.516;2023-11-19T12:05:16;95340.0;;;16.7;66.9
50166;BME280;36071;48.140;11.516;2023-11-19T12:10:16;95330.0;;;16.9;65.6
50166;BME280;36071;48.140;11.516;2023-11-19T12:15:16;95330.0;;;16.9;64.2
50166;BME280;36071;48.140;11.516;2023-11-19T12:20:16;95350.0;;;17.1;63.5
50166;BME280;36071;48.140;11.516;2023-11-19T12:25:16;95340.0;;;17.3;63.3
50166;BME280;36071;48.140;11.516;2023-11-19T12:30:16;95330.0;;;17.2;62.0
50166;BME280;36071;48.140;11.516;2023-11-19T12:35:16;95320.0;;;16.6;63.1
50166;BME280;36071;48.140;11.516;2023-11-19T12:40:16;95300.0;;;16.4;65.0
50166;BME280;36071;48.140;11.516;2023-11-19T12:45:16;95310.0;;;16.4;64.6
50166;BME280;36071;48.140;11.516;2023-11-19T12:50:16;95300.0;;;16.6;63.5
50166;BME280;36071;48.140;11.516;2023-11-19T12:55:24;95280.0;;;16.6;62.8
50166;BME280;36071;48.140;11.516;2023-11-19T13:00:20;95300.0;;;16.5;63.5
50166;BME280;36071;48.140;11.516;2023-11-19T13:05:20;95290.0;;;16.9;62.5
50166;BME280;36071;48.140;11.516;2023-11-19T13:10:16;95290.0;;;16.3;63.5
50166;BME280;36071;48.140;11.516;2023-11-19T13:15:22;95280.0;;;15.8;66.1
50166;BME280;36071;48.140;11.516;2023-11-19T13:20:16;95270.0;;;15.5;67.9
50166;BME280;36071;48.140;11.516;2023-11-19T13:25:16;95290.0;;;15.2;69.7
50166;BME280;36071;48.140;11.516;2023-11-19T13:30:16;95280.0;;;15.2;70.2
50166;BME280;36071;48.140;11.516;2023-11-19T13:35:17;95280.0;;;15.1;70.5
50166;BME280;36071;48.140;11.516;2023-11-19T13:40:16;95270.0;;;14.9;71.5
50166;BME280;36071;48.140;11.516;2023-11-19T13:45:16;95270.0;;;14.8;72.3
50166;BME280;36071;48.140;11.516;2023-11-19T13:50:16;95270.0;;;14.6;73.7
50166;BME280;36071;48.140;11.516;2023-11-19T13:55:16;95280.0;;;14.5;74.6
50166;BME280;36071;48.140;11.516;2023-11-19T14:00:16;95270.0;;;14.4;75.8
50166;BME280;36071;48.140;11.516;2023-11-19T14:05:16;95270.0;;;14.3;76.7
50166;BME280;36071;48.140;11.516;2023-11-19T14:10:16;95250.0;;;14.2;77.4
50166;BME280;36071;48.140;11.516;2023-11-19T14:15:16;95260.0;;;14.3;77.5
50166;BME280;36071;48.140;11.516;2023-11-19T14:20:16;95270.0;;;14.1;77.6
50166;BME280;36071;48.140;11.516;2023-11-19T14:25:16;95260.0;;;14.1;78.4
50166;BME280;36071;48.140;11.516;2023-11-19T14:30:16;95270.0;;;14.1;78.4
50166;BME280;36071;48.140;11.516;2023-11-19T14:35:16;95250.0;;;14.0;78.7
50166;BME280;36071;48.140;11.516;2023-11-19T14:40:16;95260.0;;;14.0;78.0
50166;BME280;36071;48.140;11.516;2023-11-19T14:45:16;95260.0;;;14.0;78.1
50166;BME280;36071;48.140;11.516;2023-11-19T14:50:16;95250.0;;;13.9;77.9
50166;BME280;36071;48.140;11.516;2023-11-19T14:55:16;95250.0;;;13.9;78.6
50166;BME280;36071;48.140;11.516;2023-11-19T15:00:16;95240.0;;;13.9;78.4
50166;BME280;36071;48.140;11.516;2023-11-19T15:05:16;95240.0;;;13.7;78.3
50166;BME280;36071;48.140;11.516;2023-11-19T15:10:16;95250.0;;;13.7;78.4
50166;BME280;36071;48.140;11.516;2023-11-19T15:15:16;95230.0;;;13.4;79.1
50166;BME280;36071;48.140;11.516;2023-11-19T15:20:16;95250.0;;;13.4;79.5
50166;BME280;36071;48.140;11.516;2023-11-19T15:25:16;95250.0;;;13.4;80.0
50166;BME280;36071;48.140;11.516;2023-11-19T15:30:16;95240.0;;;13.2;80.7
50166;BME280;36071;48.140;11.516;2023-11-19T15:35:16;95260.0;;;13.1;81.5
50166;BME280;36071;48.140;11.516;2023-11-19T15:40:17;95260.0;;;13.1;82.2
50166;BME280;36071;48.140;11.516;2023-11-19T15:45:16;95270.0;;;13.1;82.5
50166;BME280;36071;48.140;11.516;2023-11-19T15:50:16;95270.0;;;12.9;82.9
50166;BME280;36071;48.140;11.516;2023-11-19T15:55:16;95270.0;;;12.8;83.4
50166;BME280;36071;48.140;11.516;2023-11-19T16:00:17;95280.0;;;12.8;84.0
50166;BME280;36071;48.140;11.516;2023-11-19T16:05:16;95280.0;;;12.8;84.5
50166;BME280;36071;48.140;11.516;2023-11-19T16:10:16;95290.0;;;12.8;84.7
50166;BME280;36071;48.140;11.516;2023-11-19T16:15:16;95280.0;;;12.7;85.4
50166;BME280;36071;48.140;11.516;2023-11-19T16:20:16;95280.0;;;12.8;85.4
50166;BME280;36071;48.140;11.516;2023-11-19T16:25:16;95280.0;;;12.7;85.8
50166;BME280;36071;48.140;11.516;2023-11-19T16:30:16;95280.0;;;12.6;86.2
50166;BME280;36071;48.140;11.516;2023-11-19T16:35:16;95280.0;;;12.5;87.2
50166;BME280;36071;48.140;11.516;2023-11-19T16:40:16;95270.0;;;12.5;87.6
50166;BME280;36071;48.140;11.516;2023-11-19T16:45:16;95270.0;;;12.4;88.4
50166;BME280;36071;48.140;11.516;2023-11-19T16:50:16;95280.0;;;12.4;88.4
50166;BME280;36071;48.140;11.516;2023-11-19T16:55:16;95260.0;;;12.3;87.9
50166;BME280;36071;48.140;11.516;2023-11-19T17:00:16;95270.0;;;12.3;87.3
50166;BME280;36071;48.140;11.516;2023-11-19T17:10:16;95260.0;;;12.2;84.2
50166;BME280;36071;48.140;11.516;2023-11-19T17:15:16;95280.0;;;12.1;83.7
50166;BME280;36071;48.140;11.516;2023-11-19T17:20:16;95280.0;;;12.1;83.0
50166;BME280;36071;48.140;11.516;2023-11-19T17:25:16;95280.0;;;12.1;82.5
50166;BME280;36071;48.140;11.516;2023-11-19T17:30:16;95290.0;;;12.0;82.1
50166;BME280;36071;48.140;11.516;2023-11-19T17:35:16;95290.0;;;12.0;81.4
50166;BME280;36071;48.140;11.516;2023-11-19T17:40:16;95290.0;;;12.0;81.5
50166;BME280;36071;48.140;11.516;2023-11-19T17:45:16;95290.0;;;11.9;81.1
50166;BME280;36071;48.140;11.516;2023-11-19T17:50:16;95290.0;;;11.9;81.3
50166;BME280;36071;48.140;11.516;2023-11-19T17:55:16;95280.0;;;11.9;81.2
50166;BME280;36071;48.140;11.516;2023-11-19T18:00:16;95300.0;;;11.9;81.7
50166;BME280;36071;48.140;11.516;2023-11-19T18:05:16;95290.0;;;11.8;82.1
50166;BME280;36071;48.140;11.516;2023-11-19T18:10:16;95300.0;;;11.8;82.9
50166;BME280;36071;48.140;11.516;2023-11-19T18:15:16;95320.0;;;11.7;82.5
50166;BME280;36071;48.140;11.516;2023-11-19T18:20:16;95310.0;;;11.7;82.9
50166;BME280;36071;48.140;11.516;2023-11-19T18:25:16;95320.0;;;11.7;82.5
50166;BME280;36071;48.140;11.516;2023-11-19T18:30:16;95310.0;;;11.7;82.4
50166;BME280;36071;48.140;11.516;2023-11-19T18:35:16;95320.0;;;11.6;81.7
50166;BME280;36071;48.140;11.516;2023-11-19T18:45:16;95310.0;;;11.6;80.6
50166;BME280;36071;48.140;11.516;2023-11-19T18:50:16;95310.0;;;11.6;80.7
50166;BME280;36071;48.140;11.516;2023-11-19T18:55:16;95310.0;;;11.5;80.8
50166;BME280;36071;48.140;11.516;2023-11-19T19:00:16;95320.0;;;11.5;80.9
50166;BME280;36071;48.140;11.516;2023-11-19T19:05:16;95330.0;;;11.5;81.1
50166;BME280;36071;48.140;11.516;2023-11-19T19:10:16;95320.0;;;11.5;81.6
50166;BME280;36071;48.140;11.516;2023-11-19T19:15:17;95320.0;;;11.5;82.1
50166;BME280;36071;48.140;11.516;2023-11-19T19:20:16;95350.0;;;11.5;82.3
50166;BME280;36071;48.140;11.516;2023-11-19T19:25:16;95350.0;;;11.4;82.7
50166;BME280;36071;48.140;11.516;2023-11-19T19:30:17;95350.0;;;11.4;83.1
50166;BME280;36071;48.140;11.516;2023-11-19T19:35:16;95360.0;;;11.4;83.9
50166;BME280;36071;48.140;11.516;2023-11-19T19:40:16;95350.0;;;11.3;84.6
50166;BME280;36071;48.140;11.516;2023-11-19T19:45:16;95360.0;;;11.3;85.3
50166;BME280;36071;48.140;11.516;2023-11-19T19:50:16;95370.0;;;11.2;86.4
50166;BME280;36071;48.140;11.516;2023-11-19T20:10:16;95360.0;;;11.1;89.8
50166;BME280;36071;48.140;11.516;2023-11-19T20:20:16;95370.0;;;11.0;89.4
50166;BME280;36071;48.140;11.516;2023-11-19T20:25:16;95380.0;;;11.0;89.1
50166;BME280;36071;48.140;11.516;2023-11-19T20:30:16;95370.0;;;11.0;88.4
50166;BME280;36071;48.140;11.516;2023-11-19T20:35:16;95380.0;;;11.0;87.7
50166;BME280;36071;48.140;11.516;2023-11-19T20:40:16;95390.0;;;11.0;86.6
50166;BME280;36071;48.140;11.516;2023-11-19T20:45:16;95400.0;;;11.0;86.9
50166;BME280;36071;48.140;11.516;2023-11-19T20:50:16;95390.0;;;11.0;86.9
50166;BME280;36071;48.140;11.516;2023-11-19T20:55:16;95400.0;;;11.0;86.9
50166;BME280;36071;48.140;11.516;2023-11-19T21:05:16;95400.0;;;11.0;85.5
50166;BME280;36071;48.140;11.516;2023-11-19T21:10:16;95390.0;;;11.0;84.4
50166;BME280;36071;48.140;11.516;2023-11-19T21:15:16;95380.0;;;11.0;80.3
50166;BME280;36071;48.140;11.516;2023-11-19T21:20:16;95380.0;;;11.0;78.3
50166;BME280;36071;48.140;11.516;2023-11-19T21:25:16;95390.0;;;11.4;77.2
50166;BME280;36071;48.140;11.516;2023-11-19T21:30:16;95380.0;;;11.3;74.0
50166;BME280;36071;48.140;11.516;2023-11-19T21:35:16;95380.0;;;11.2;73.8
50166;BME280;36071;48.140;11.516;2023-11-19T21:40:16;95380.0;;;11.2;73.5
50166;BME280;36071;48.140;11.516;2023-11-19T21:45:16;95380.0;;;11.1;72.8
50166;BME280;36071;48.140;11.516;2023-11-19T21:50:16;95390.0;;;11.1;73.1
50166;BME280;36071;48.140;11.516;2023-11-19T21:55:16;95380.0;;;11.0;73.6
50166;BME280;36071;48.140;11.516;2023-11-19T22:00:16;95390.0;;;11.0;74.0
50166;BME280;36071;48.140;11.516;2023-11-19T22:05:16;95380.0;;;11.0;73.7
50166;BME280;36071;48.140;11.516;2023-11-19T22:10:16;95380.0;;;11.0;73.5
50166;BME280;36071;48.140;11.516;2023-11-19T22:15:16;95390.0;;;10.9;73.0
50166;BME280;36071;48.140;11.516;2023-11-19T22:20:16;95390.0;;;10.9;72.7
50166;BME280;36071;48.140;11.516;2023-11-19T22:25:16;95400.0;;;10.9;72.6
50166;BME280;36071;48.140;11.516;2023-11-19T22:30:16;95390.0;;;10.9;73.4
50166;BME280;36071;48.140;11.516;2023-11-19T22:35:16;95390.0;;;10.8;73.7
50166;BME280;36071;48.140;11.516;2023-11-19T22:40:16;95390.0;;;10.8;74.0
50166;BME280;36071;48.140;11.516;2023-11-19T22:45:16;95400.0;;;10.8;73.8
50166;BME280;36071;48.140;11.516;2023-11-19T22:50:16;95390.0;;;10.8;73.6
50166;BME280;36071;48.140;11.516;2023-11-19T22:55:18;95390.0;;;10.8;73.2
50166;BME280;36071;48.140;11.516;2023-11-19T23:00:16;95390.0;;;10.8;73.0
50166;BME280;36071;48.140;11.516;2023-11-19T23:05:16;95400.0;;;10.8;72.9
50166;BME280;36071;48.140;11.516;2023-11-19T23:10:16;95390.0;;;10.8;72.2
50166;BME280;36071;48.140;11.516;2023-11-19T23:15:16;95390.0;;;10.8;72.4
50166;BME280;36071;48.140;11.516;2023-11-19T23:20:16;95390.0;;;10.8;72.8
50166;BME280;36071;48.140;11.516;2023-11-19T23:40:16;95400.0;;;10.6;73.6
50166;BME280;36071;48.140;11.516;2023-11-19T23:45:16;95400.0;;;10.6;73.8
50166;BME280;36071;48.140;11.516;2023-11-19T23:50:16;95400.0;;;10.6;74.3
50166;BME280;36071;48.140;11.516;2023-11-19T23:55:16;95390.0;;;10.6;74.7
